Time;durP1;ratioP1;P1;durP2;ratioP2;P2;SDS_P1;SDS_P2;PMS_P1;PMS_P2;Temp;Humidity;BMP_temperature;BMP_pressure;BME280_temperature;BME280_humidity;BME280_pressure;Samples;Min_cycle;Max_cycle;Signal;HPM_P1;HPM_P2
2021/09/03 00:01:05;;;;;;;;;;;;;;;22.35;27.56;98425.63;4944584;29;851;-79
2021/09/03 00:03:31;;;;;;;;;;;;;;;22.51;27.44;98430.53;4943849;29;868;-79
2021/09/03 00:06:00;;;;;;;;;;;;;;;22.43;27.23;98431.91;4978910;28;1016;-79
2021/09/03 00:08:30;;;;;;;;;;;;;;;22.29;27.60;98433.06;4966236;28;1280;-79
2021/09/03 00:10:56;;;;;;;;;;;;;;;22.21;27.62;98429.56;4983148;28;637;-79
2021/09/03 00:13:26;;;;;;;;;;;;;;;22.34;27.50;98424.81;4981864;28;1000;-77
2021/09/03 00:15:52;;;;;;;;;;;;;;;22.48;27.20;98417.22;4965940;28;1898;-79
2021/09/03 00:18:18;;;;;;;;;;;;;;;22.38;27.43;98435.25;4982120;28;887;-79
2021/09/03 00:20:44;;;;;;;;;;;;;;;22.34;27.43;98436.16;4964630;28;851;-79
2021/09/03 00:23:12;;;;;;;;;;;;;;;22.34;27.38;98436.16;4966304;28;616;-79
2021/09/03 00:25:38;;;;;;;;;;;;;;;22.39;27.50;98442.56;4965393;28;878;-79
2021/09/03 00:28:06;;;;;;;;;;;;;;;22.36;27.35;98445.00;4982062;28;962;-79
2021/09/03 00:30:33;;;;;;;;;;;;;;;22.24;27.67;98445.72;4981460;28;842;-78
2021/09/03 00:33:01;;;;;;;;;;;;;;;22.25;27.59;98430.28;4965907;28;1020;-79
2021/09/03 00:35:27;;;;;;;;;;;;;;;22.28;27.76;98443.59;4964208;28;1981;-79
2021/09/03 00:37:53;;;;;;;;;;;;;;;22.28;27.73;98437.94;4982719;28;608;-79
2021/09/03 00:40:19;;;;;;;;;;;;;;;22.23;27.40;98446.94;4981494;28;995;-79
2021/09/03 00:42:48;;;;;;;;;;;;;;;22.29;27.54;98439.53;4982046;28;842;-78
2021/09/03 00:45:15;;;;;;;;;;;;;;;22.23;27.77;98444.13;4982268;28;859;-78
2021/09/03 00:47:41;;;;;;;;;;;;;;;22.33;27.37;98440.25;4965159;28;777;-78
2021/09/03 00:50:08;;;;;;;;;;;;;;;22.30;27.39;98438.28;4965212;28;861;-78
2021/09/03 00:52:35;;;;;;;;;;;;;;;22.21;27.61;98446.56;4982363;28;706;-78
2021/09/03 00:55:01;;;;;;;;;;;;;;;22.28;27.43;98442.81;4949222;28;1895;-79
2021/09/03 00:57:27;;;;;;;;;;;;;;;22.18;27.56;98438.97;4948947;28;1190;-78
2021/09/03 00:59:53;;;;;;;;;;;;;;;22.35;27.24;98436.97;4982110;28;876;-79
2021/09/03 01:02:22;;;;;;;;;;;;;;;22.23;27.53;98446.94;4982335;28;659;-79
2021/09/03 01:04:48;;;;;;;;;;;;;;;22.18;27.62;98449.50;4964753;28;1091;-78
2021/09/03 01:07:14;;;;;;;;;;;;;;;22.27;27.70;98447.66;4964970;28;906;-78
2021/09/03 01:09:40;;;;;;;;;;;;;;;22.30;27.48;98440.31;4981964;28;914;-78
2021/09/03 01:12:05;;;;;;;;;;;;;;;22.33;27.25;98443.06;4982317;28;942;-78
2021/09/03 01:14:31;;;;;;;;;;;;;;;22.29;27.47;98438.72;4965051;28;756;-79
2021/09/03 01:16:57;;;;;;;;;;;;;;;22.23;27.70;98435.59;4965548;28;1910;-78
2021/09/03 01:19:23;;;;;;;;;;;;;;;22.32;27.60;98435.78;4965111;28;710;-79
2021/09/03 01:21:49;;;;;;;;;;;;;;;22.24;27.64;98442.88;4981906;28;922;-78
2021/09/03 01:24:15;;;;;;;;;;;;;;;22.28;27.71;98437.94;4964351;28;867;-79
2021/09/03 01:26:46;;;;;;;;;;;;;;;22.26;27.42;98437.56;4981979;28;948;-79
2021/09/03 01:29:21;;;;;;;;;;;;;;;22.21;27.61;98437.28;4964969;28;690;-79
2021/09/03 01:31:47;;;;;;;;;;;;;;;22.09;27.87;98435.88;4981960;28;664;-78
2021/09/03 01:34:22;;;;;;;;;;;;;;;22.18;27.57;98441.78;4981506;28;978;-79
2021/09/03 01:37:08;;;;;;;;;;;;;;;22.13;27.80;98435.84;4964241;28;1914;-79
2021/09/03 01:39:43;;;;;;;;;;;;;;;22.03;27.79;98429.16;4980526;28;659;-78
2021/09/03 01:42:09;;;;;;;;;;;;;;;22.12;27.94;98434.22;4983869;28;647;-78
2021/09/03 01:44:34;;;;;;;;;;;;;;;22.21;27.57;98438.06;4985606;28;687;-79
2021/09/03 01:47:00;;;;;;;;;;;;;;;22.23;27.46;98446.94;4968719;28;639;-79
2021/09/03 01:49:25;;;;;;;;;;;;;;;22.18;27.46;98447.47;4967858;28;882;-78
2021/09/03 01:51:50;;;;;;;;;;;;;;;22.22;27.44;98453.84;4968168;28;956;-79
2021/09/03 01:54:16;;;;;;;;;;;;;;;22.18;27.50;98455.97;4984739;28;1004;-78
2021/09/03 01:56:41;;;;;;;;;;;;;;;22.32;27.28;98452.78;4968438;28;1910;-78
2021/09/03 01:59:07;;;;;;;;;;;;;;;22.17;27.39;98448.69;4984817;28;635;-79
2021/09/03 02:01:32;;;;;;;;;;;;;;;22.06;27.83;98446.03;4984748;28;845;-79
2021/09/03 02:04:04;;;;;;;;;;;;;;;22.10;27.46;98446.81;4984284;28;1137;-78
2021/09/03 02:06:30;;;;;;;;;;;;;;;22.29;27.13;98450.84;4985154;28;833;-79
2021/09/03 02:08:55;;;;;;;;;;;;;;;22.03;27.69;98446.16;4984671;28;663;-79
2021/09/03 02:11:22;;;;;;;;;;;;;;;22.18;27.37;98455.97;4984994;28;703;-78
2021/09/03 02:13:47;;;;;;;;;;;;;;;22.08;27.61;98451.28;4984559;28;643;-79
2021/09/03 02:16:15;;;;;;;;;;;;;;;22.20;27.29;98458.34;4984503;28;1973;-79
2021/09/03 02:18:41;;;;;;;;;;;;;;;22.04;27.58;98450.56;4967440;28;896;-78
2021/09/03 02:21:06;;;;;;;;;;;;;;;22.21;27.35;98455.06;4984742;28;974;-79
2021/09/03 02:23:32;;;;;;;;;;;;;;;22.21;27.60;98446.56;4966987;28;782;-79
2021/09/03 02:25:58;;;;;;;;;;;;;;;22.06;27.53;98442.41;4984854;28;676;-79
2021/09/03 02:28:23;;;;;;;;;;;;;;;22.06;27.75;98437.53;4967348;28;665;-78
2021/09/03 02:30:49;;;;;;;;;;;;;;;22.11;28.01;98433.44;4984171;28;815;-79
2021/09/03 02:33:14;;;;;;;;;;;;;;;22.33;27.63;98445.91;4966959;28;888;-78
2021/09/03 02:35:52;;;;;;;;;;;;;;;22.23;27.94;98441.28;4984816;28;1898;-78
2021/09/03 02:38:18;;;;;;;;;;;;;;;20.51;27.90;98140.34;4984035;28;694;-79
2021/09/03 02:40:43;;;;;;;;;;;;;;;22.40;27.98;98421.47;4984709;28;632;-79
2021/09/03 02:43:08;;;;;;;;;;;;;;;22.52;28.11;98423.59;4966861;28;937;-79
2021/09/03 02:45:34;;;;;;;;;;;;;;;22.38;28.10;98419.06;4984384;28;978;-79
2021/09/03 02:48:03;;;;;;;;;;;;;;;22.24;28.22;98425.88;4967162;28;867;-78
2021/09/03 02:50:29;;;;;;;;;;;;;;;22.46;28.30;98420.50;4967687;28;686;-79
2021/09/03 02:52:56;;;;;;;;;;;;;;;22.38;28.30;98412.59;4983120;28;623;-79
2021/09/03 02:55:22;;;;;;;;;;;;;;;22.25;28.56;98430.28;4967239;28;1898;-79
2021/09/03 02:57:47;;;;;;;;;;;;;;;22.22;28.36;98416.97;4966459;28;795;-78
2021/09/03 03:00:13;;;;;;;;;;;;;;;22.35;28.47;98432.09;4966897;28;872;-78
2021/09/03 03:02:39;;;;;;;;;;;;;;;22.51;28.15;98414.31;4966539;28;913;-78
2021/09/03 03:05:07;;;;;;;;;;;;;;;22.44;28.00;98427.84;4966000;28;1383;-79
2021/09/03 03:07:33;;;;;;;;;;;;;;;22.26;28.51;98433.91;4983847;28;1060;-78
2021/09/03 03:09:58;;;;;;;;;;;;;;;22.17;28.62;98431.66;4983618;28;671;-79
2021/09/03 03:12:24;;;;;;;;;;;;;;;22.20;28.58;98442.16;4984018;28;718;-79
2021/09/03 03:14:49;;;;;;;;;;;;;;;22.28;28.61;98437.94;4966009;28;1894;-79
2021/09/03 03:17:17;;;;;;;;;;;;;;;22.42;28.30;98430.31;4966553;28;1010;-79
2021/09/03 03:19:45;;;;;;;;;;;;;;;22.26;28.36;98431.88;4966453;28;989;-79
2021/09/03 03:22:10;;;;;;;;;;;;;;;22.32;28.42;98437.81;4966633;28;788;-79
2021/09/03 03:24:36;;;;;;;;;;;;;;;22.37;28.58;98420.28;4983530;28;637;-79
2021/09/03 03:27:01;;;;;;;;;;;;;;;22.30;28.68;98437.47;4966359;28;971;-79
2021/09/03 03:29:27;;;;;;;;;;;;;;;22.29;28.61;98435.88;4966274;28;761;-79
2021/09/03 03:31:52;;;;;;;;;;;;;;;22.49;28.12;98433.00;4983863;28;623;-79
2021/09/03 03:34:18;;;;;;;;;;;;;;;22.45;28.14;98432.28;4982712;28;1174;-79
2021/09/03 03:36:43;;;;;;;;;;;;;;;22.45;28.12;98426.63;4983076;28;1977;-77
2021/09/03 03:39:09;;;;;;;;;;;;;;;22.47;28.38;98436.25;4950524;28;1154;-79
2021/09/03 03:41:34;;;;;;;;;;;;;;;22.42;28.54;98447.31;4982440;28;771;-79
2021/09/03 03:44:00;;;;;;;;;;;;;;;22.38;28.32;98440.94;4966091;28;695;-78
2021/09/03 03:46:26;;;;;;;;;;;;;;;22.40;28.61;98444.94;4966244;28;810;-78
2021/09/03 03:48:51;;;;;;;;;;;;;;;22.41;28.27;98440.88;4965308;28;931;-78
2021/09/03 03:51:17;;;;;;;;;;;;;;;22.41;28.38;98448.56;4982818;28;832;-79
2021/09/03 03:53:42;;;;;;;;;;;;;;;22.44;28.52;98451.34;4982215;28;862;-78
2021/09/03 03:56:08;;;;;;;;;;;;;;;22.39;28.52;98442.56;4982966;28;1902;-78
2021/09/03 03:58:33;;;;;;;;;;;;;;;22.27;28.73;98447.66;4966030;28;663;-77
2021/09/03 04:00:58;;;;;;;;;;;;;;;22.48;28.69;98454.88;4966565;28;647;-79
2021/09/03 04:03:24;;;;;;;;;;;;;;;22.24;28.89;98459.09;4965019;28;1156;-79
2021/09/03 04:05:49;;;;;;;;;;;;;;;22.36;28.56;98462.03;4983289;28;1019;-79
2021/09/03 04:08:15;;;;;;;;;;;;;;;22.38;28.52;98457.94;4966076;28;909;-79
2021/09/03 04:10:40;;;;;;;;;;;;;;;22.50;28.37;98482.81;4966201;28;665;-79
2021/09/03 04:13:06;;;;;;;;;;;;;;;22.50;28.61;98454.44;4982865;28;660;-79
2021/09/03 04:15:31;;;;;;;;;;;;;;;22.43;28.80;98468.78;4983066;28;1906;-79
2021/09/03 04:17:56;;;;;;;;;;;;;;;22.54;28.58;98477.84;4982119;28;1158;-79
2021/09/03 04:20:31;;;;;;;;;;;;;;;22.35;28.97;98459.63;4982355;28;872;-79
2021/09/03 04:22:57;;;;;;;;;;;;;;;22.35;28.82;98466.09;4982355;28;1105;-79
2021/09/03 04:25:22;;;;;;;;;;;;;;;22.50;28.73;98468.63;4983125;28;687;-79
2021/09/03 04:27:48;;;;;;;;;;;;;;;22.42;28.84;98458.66;4982313;28;632;-79
2021/09/03 04:30:13;;;;;;;;;;;;;;;22.45;28.87;98463.47;4982391;28;655;-79
2021/09/03 04:32:39;;;;;;;;;;;;;;;22.44;29.01;98476.06;4965350;28;831;-79
2021/09/03 04:35:05;;;;;;;;;;;;;;;22.38;29.22;98472.91;4982022;28;1973;-79
2021/09/03 04:37:30;;;;;;;;;;;;;;;22.44;29.17;98474.03;4966278;28;895;-79
2021/09/03 04:39:56;;;;;;;;;;;;;;;22.28;29.46;98474.78;4982027;28;711;-79
2021/09/03 04:42:22;;;;;;;;;;;;;;;22.46;29.17;98479.25;4965873;28;717;-78
2021/09/03 04:44:47;;;;;;;;;;;;;;;22.42;29.09;98481.34;4965637;28;703;-79
2021/09/03 04:47:16;;;;;;;;;;;;;;;22.48;28.91;98491.72;4981917;28;947;-79
2021/09/03 04:49:41;;;;;;;;;;;;;;;22.57;28.85;98493.97;4965544;28;871;-78
2021/09/03 04:52:07;;;;;;;;;;;;;;;22.30;29.13;98486.47;4965875;28;1012;-79
2021/09/03 04:54:32;;;;;;;;;;;;;;;22.64;28.58;98479.66;4965584;28;1188;-79
2021/09/03 04:57:04;;;;;;;;;;;;;;;22.55;28.75;98482.28;4982633;28;1899;-79
2021/09/03 04:59:29;;;;;;;;;;;;;;;22.44;28.81;98485.38;4965413;28;655;-79
2021/09/03 05:01:54;;;;;;;;;;;;;;;22.40;28.89;98478.16;4965546;28;883;-79
2021/09/03 05:04:20;;;;;;;;;;;;;;;22.43;28.67;98494.28;4981806;28;936;-79
2021/09/03 05:06:45;;;;;;;;;;;;;;;22.61;28.34;98495.50;4982289;28;954;-79
2021/09/03 05:09:11;;;;;;;;;;;;;;;22.25;28.93;98509.66;4982218;28;836;-79
2021/09/03 05:11:36;;;;;;;;;;;;;;;22.38;28.77;98508.97;4982742;28;871;-79
2021/09/03 05:14:02;;;;;;;;;;;;;;;22.49;28.54;98509.56;4982020;28;631;-79
2021/09/03 05:16:27;;;;;;;;;;;;;;;22.37;28.97;98508.19;4966425;28;1906;-79
2021/09/03 05:18:54;;;;;;;;;;;;;;;22.54;28.37;98517.56;4968539;28;1181;-79
2021/09/03 05:21:20;;;;;;;;;;;;;;;22.43;28.44;98511.31;4986315;28;890;-79
2021/09/03 05:23:45;;;;;;;;;;;;;;;22.40;28.72;98517.88;4985534;28;639;-79
2021/09/03 05:26:11;;;;;;;;;;;;;;;22.40;28.63;98518.66;4985992;28;789;-79
2021/09/03 05:28:38;;;;;;;;;;;;;;;22.41;28.39;98519.47;4985454;28;635;-79
2021/09/03 05:31:04;;;;;;;;;;;;;;;22.38;28.51;98526.00;4985998;28;1038;-79
2021/09/03 05:33:29;;;;;;;;;;;;;;;22.32;28.75;98522.88;4967937;28;905;-79
2021/09/03 05:35:55;;;;;;;;;;;;;;;22.42;28.75;98521.84;4985519;28;1906;-79
2021/09/03 05:38:20;;;;;;;;;;;;;;;22.29;29.00;98521.72;4985406;28;623;-79
2021/09/03 05:40:46;;;;;;;;;;;;;;;22.44;29.00;98529.94;4985921;28;726;-79
2021/09/03 05:43:11;;;;;;;;;;;;;;;22.33;28.97;98525.28;4985138;28;643;-79
2021/09/03 05:45:37;;;;;;;;;;;;;;;22.52;28.58;98532.16;4985442;28;993;-78
2021/09/03 05:48:02;;;;;;;;;;;;;;;22.66;28.55;98542.41;4968281;28;921;-79
2021/09/03 05:50:28;;;;;;;;;;;;;;;22.33;29.08;98524.50;4968706;28;880;-79
2021/09/03 05:52:54;;;;;;;;;;;;;;;22.45;28.84;98532.31;4968000;28;963;-79
2021/09/03 05:55:19;;;;;;;;;;;;;;;22.45;28.59;98531.53;4985349;28;1884;-79
2021/09/03 05:57:45;;;;;;;;;;;;;;;22.32;28.71;98535.00;4952895;28;752;-79
2021/09/03 06:00:10;;;;;;;;;;;;;;;22.38;28.93;98545.84;4967833;28;1198;-79
2021/09/03 06:02:36;;;;;;;;;;;;;;;22.31;28.77;98544.75;4985004;28;828;-79
2021/09/03 06:05:01;;;;;;;;;;;;;;;22.38;28.84;98543.00;4967751;28;1111;-79
2021/09/03 06:07:27;;;;;;;;;;;;;;;22.48;28.85;98551.28;4968603;28;712;-79
2021/09/03 06:09:52;;;;;;;;;;;;;;;22.68;28.34;98556.94;4984680;28;660;-79
2021/09/03 06:12:18;;;;;;;;;;;;;;;22.51;28.45;98552.47;4985025;28;695;-79
2021/09/03 06:14:43;;;;;;;;;;;;;;;22.38;28.95;98560.81;4984376;28;944;-79
2021/09/03 06:17:09;;;;;;;;;;;;;;;22.64;28.49;98561.91;4968405;28;2019;-79
2021/09/03 06:19:34;;;;;;;;;;;;;;;22.42;28.57;98564.38;4984661;28;977;-79
2021/09/03 06:22:01;;;;;;;;;;;;;;;22.49;28.80;98555.75;4984978;28;711;-78
2021/09/03 06:24:34;;;;;;;;;;;;;;;22.51;28.70;98558.13;4984560;28;675;-78
2021/09/03 06:26:59;;;;;;;;;;;;;;;22.54;28.77;98568.59;4968790;28;679;-78
2021/09/03 06:29:43;;;;;;;;;;;;;;;22.46;28.80;98578.50;4983261;28;933;-79
2021/09/03 06:32:10;;;;;;;;;;;;;;;22.43;29.11;98562.34;4983854;28;947;-79
2021/09/03 06:34:36;;;;;;;;;;;;;;;22.35;28.90;98568.16;4967750;28;1129;-79
2021/09/03 06:37:01;;;;;;;;;;;;;;;22.55;28.63;98559.66;4984889;28;1914;-79
2021/09/03 06:39:27;;;;;;;;;;;;;;;22.35;29.04;98573.03;4967308;28;573;-79
2021/09/03 06:41:52;;;;;;;;;;;;;;;22.49;28.85;98566.28;4984009;28;682;-79
2021/09/03 06:44:18;;;;;;;;;;;;;;;22.41;28.79;98559.94;4983755;28;954;-78
2021/09/03 06:46:43;;;;;;;;;;;;;;;22.52;28.60;98559.72;4984196;28;843;-79
2021/09/03 06:49:08;;;;;;;;;;;;;;;22.59;28.41;98568.09;4984169;28;846;-79
2021/09/03 06:51:34;;;;;;;;;;;;;;;22.51;28.70;98566.63;4984280;28;710;-79
2021/09/03 06:53:59;;;;;;;;;;;;;;;22.43;29.02;98573.69;4967442;28;787;-79
2021/09/03 06:56:25;;;;;;;;;;;;;;;22.56;28.58;98577.47;4984372;28;1975;-79
2021/09/03 06:58:50;;;;;;;;;;;;;;;22.51;28.59;98575.16;4966490;28;858;-79
2021/09/03 07:01:16;;;;;;;;;;;;;;;22.45;28.73;98571.22;4983964;28;890;-78
2021/09/03 07:03:43;;;;;;;;;;;;;;;22.50;28.54;98579.22;4983485;28;828;-79
2021/09/03 07:06:09;;;;;;;;;;;;;;;22.53;28.87;98589.66;4967436;28;1054;-79
2021/09/03 07:08:34;;;;;;;;;;;;;;;22.52;28.94;98594.56;4966389;28;860;-79
2021/09/03 07:11:00;;;;;;;;;;;;;;;22.59;28.49;98593.63;4984498;28;691;-79
2021/09/03 07:13:25;;;;;;;;;;;;;;;22.68;28.31;98590.97;4966048;28;976;-79
2021/09/03 07:15:51;;;;;;;;;;;;;;;22.45;28.89;98605.25;4984122;28;2011;-79
2021/09/03 07:18:16;;;;;;;;;;;;;;;22.57;28.61;98601.75;4983461;28;880;-79
2021/09/03 07:20:41;;;;;;;;;;;;;;;22.41;28.84;98598.84;4984011;28;719;-79
2021/09/03 07:23:07;;;;;;;;;;;;;;;22.57;28.69;98601.75;4983726;28;639;-79
2021/09/03 07:25:32;;;;;;;;;;;;;;;22.50;28.54;98593.41;4983805;28;627;-79
2021/09/03 07:27:58;;;;;;;;;;;;;;;22.53;28.54;98601.03;4966047;28;942;-79
2021/09/03 07:30:23;;;;;;;;;;;;;;;22.59;28.36;98594.41;4983263;28;848;-79
2021/09/03 07:32:49;;;;;;;;;;;;;;;22.55;28.65;98599.38;4983227;28;926;-79
2021/09/03 07:35:14;;;;;;;;;;;;;;;22.59;28.56;98593.63;4983113;28;1970;-79
2021/09/03 07:37:40;;;;;;;;;;;;;;;22.57;28.61;98590.41;4966635;28;768;-79
2021/09/03 07:40:06;;;;;;;;;;;;;;;22.50;28.52;98596.25;4949289;28;1283;-79
2021/09/03 07:42:32;;;;;;;;;;;;;;;22.70;28.45;98599.06;4983044;28;1080;-79
2021/09/03 07:44:58;;;;;;;;;;;;;;;22.69;28.18;98598.28;4982846;28;1066;-79
2021/09/03 07:47:23;;;;;;;;;;;;;;;22.51;28.60;98595.00;4983149;28;811;-79
2021/09/03 07:49:49;;;;;;;;;;;;;;;22.55;28.50;98587.22;4966161;28;686;-79
2021/09/03 07:52:14;;;;;;;;;;;;;;;22.42;28.80;98601.25;4983059;28;638;-79
2021/09/03 07:54:40;;;;;;;;;;;;;;;22.61;28.55;98591.13;4982652;28;615;-79
2021/09/03 07:57:05;;;;;;;;;;;;;;;22.56;28.59;98588.81;4965989;28;1906;-79
2021/09/03 07:59:31;;;;;;;;;;;;;;;22.56;28.89;98588.81;4982198;28;895;-79
2021/09/03 08:01:56;;;;;;;;;;;;;;;22.71;28.39;98595.78;4981606;28;831;-79
2021/09/03 08:04:22;;;;;;;;;;;;;;;22.65;28.43;98597.53;4982376;28;932;-79
2021/09/03 08:06:47;;;;;;;;;;;;;;;22.56;28.69;98588.81;4982974;28;607;-79
2021/09/03 08:09:13;;;;;;;;;;;;;;;22.57;28.82;98584.72;4982546;28;703;-79
2021/09/03 08:11:38;;;;;;;;;;;;;;;22.69;28.60;98592.59;4966070;28;834;-79
2021/09/03 08:14:05;;;;;;;;;;;;;;;22.46;29.00;98578.50;4981275;28;941;-79
2021/09/03 08:16:31;;;;;;;;;;;;;;;22.62;28.56;98575.72;4982679;28;1898;-79
2021/09/03 08:18:56;;;;;;;;;;;;;;;22.72;28.33;98580.34;4982380;28;699;-78
2021/09/03 08:21:22;;;;;;;;;;;;;;;22.65;28.76;98585.41;4982780;28;711;-79
2021/09/03 08:23:47;;;;;;;;;;;;;;;22.79;28.30;98574.50;4965689;28;660;-79
2021/09/03 08:26:12;;;;;;;;;;;;;;;22.66;28.49;98575.66;4982406;28;973;-79
2021/09/03 08:28:38;;;;;;;;;;;;;;;22.49;29.02;98588.97;4982022;28;885;-79
2021/09/03 08:31:03;;;;;;;;;;;;;;;22.60;28.72;98581.03;4965968;28;966;-79
2021/09/03 08:33:29;;;;;;;;;;;;;;;22.66;28.51;98569.97;4982177;28;710;-79
2021/09/03 08:35:54;;;;;;;;;;;;;;;22.55;28.71;98565.31;4982833;28;1894;-78
2021/09/03 08:38:20;;;;;;;;;;;;;;;22.69;28.47;98574.75;4981961;28;712;-79
2021/09/03 08:40:45;;;;;;;;;;;;;;;22.67;28.69;98571.56;4965147;28;1173;-78
2021/09/03 08:43:11;;;;;;;;;;;;;;;22.68;28.80;98573.94;4965280;28;936;-79
2021/09/03 08:45:36;;;;;;;;;;;;;;;22.53;28.72;98567.00;4965208;28;875;-79
2021/09/03 08:48:02;;;;;;;;;;;;;;;22.55;28.93;98570.19;4948773;28;1018;-79
2021/09/03 08:50:27;;;;;;;;;;;;;;;22.69;28.60;98569.91;4981615;28;703;-79
2021/09/03 08:52:53;;;;;;;;;;;;;;;22.51;29.00;98563.81;4968801;28;711;-79
2021/09/03 08:55:18;;;;;;;;;;;;;;;22.65;28.52;98560.66;4985777;28;1902;-78
2021/09/03 08:57:44;;;;;;;;;;;;;;;22.72;28.62;98563.34;4986231;28;879;-79
2021/09/03 09:00:10;;;;;;;;;;;;;;;22.85;28.14;98566.31;4985771;28;984;-79
2021/09/03 09:02:36;;;;;;;;;;;;;;;22.69;28.71;98558.56;4969209;28;687;-79
2021/09/03 09:05:01;;;;;;;;;;;;;;;22.46;29.03;98555.81;4985717;28;1027;-79
2021/09/03 09:07:27;;;;;;;;;;;;;;;22.69;28.65;98557.72;4969412;28;616;-79
2021/09/03 09:09:52;;;;;;;;;;;;;;;22.81;28.34;98560.69;4985216;28;984;-79
2021/09/03 09:12:18;;;;;;;;;;;;;;;22.80;28.64;98559.09;4969057;28;983;-79
2021/09/03 09:15:04;;;;;;;;;;;;;;;22.96;28.48;98554.72;4968825;28;848;-79
2021/09/03 09:17:35;;;;;;;;;;;;;;;22.73;28.52;98547.91;4969173;28;604;-79
2021/09/03 09:20:02;;;;;;;;;;;;;;;22.63;28.89;98551.78;4985476;28;643;-79
2021/09/03 09:22:27;;;;;;;;;;;;;;;22.64;28.72;98544.88;4952425;28;845;-79
2021/09/03 09:24:57;;;;;;;;;;;;;;;22.61;28.96;98534.41;4968704;28;1030;-79
2021/09/03 09:27:26;;;;;;;;;;;;;;;22.58;28.83;98540.94;4968925;28;891;-79
2021/09/03 09:29:51;;;;;;;;;;;;;;;22.72;28.51;98540.63;4968427;28;938;-79
2021/09/03 09:32:17;;;;;;;;;;;;;;;22.64;28.83;98539.22;4985535;28;687;-79
2021/09/03 09:34:43;;;;;;;;;;;;;;;22.57;29.19;98533.69;4985501;28;722;-79
2021/09/03 09:37:13;;;;;;;;;;;;;;;22.64;28.93;98533.53;4968711;28;1906;-79
2021/09/03 09:39:51;;;;;;;;;;;;;;;22.78;28.44;98532.41;4984868;28;942;-79
2021/09/03 09:42:43;;;;;;;;;;;;;;;22.79;28.47;98534.78;4968294;28;909;-79
2021/09/03 09:45:09;;;;;;;;;;;;;;;22.55;29.11;98519.16;4981277;28;982;-79
2021/09/03 09:47:36;;;;;;;;;;;;;;;22.75;28.62;98522.75;4968905;28;632;-78
2021/09/03 09:50:20;;;;;;;;;;;;;;;22.58;28.76;98526.75;4968293;28;635;-78
2021/09/03 09:52:45;;;;;;;;;;;;;;;22.73;28.91;98513.84;4985009;28;695;-79
2021/09/03 09:55:11;;;;;;;;;;;;;;;22.65;29.01;98512.44;4984522;28;1971;-79
2021/09/03 09:57:36;;;;;;;;;;;;;;;22.57;28.72;98511.78;4984852;28;953;-79
2021/09/03 10:00:02;;;;;;;;;;;;;;;22.53;28.81;98502.56;4967850;28;899;-79
2021/09/03 10:02:36;;;;;;;;;;;;;;;22.55;28.82;98502.94;4969061;28;711;-79
2021/09/03 10:05:02;;;;;;;;;;;;;;;22.64;28.92;98499.50;4967554;28;1039;-79
2021/09/03 10:07:27;;;;;;;;;;;;;;;22.58;28.79;98495.56;4966929;28;703;-79
2021/09/03 10:09:53;;;;;;;;;;;;;;;22.51;29.05;98501.41;4966375;28;865;-79
2021/09/03 10:12:18;;;;;;;;;;;;;;;22.62;29.06;98497.09;4984021;28;1441;-79
2021/09/03 10:14:44;;;;;;;;;;;;;;;22.63;28.81;98501.50;5004446;28;1008;-77
2021/09/03 10:17:11;;;;;;;;;;;;;;;22.67;28.88;98495.78;5022697;28;1981;-78
2021/09/03 10:19:36;;;;;;;;;;;;;;;22.86;28.84;98497.75;5022432;28;651;-79
2021/09/03 10:22:12;;;;;;;;;;;;;;;22.84;28.49;98503.06;5005981;28;615;-79
2021/09/03 10:24:38;;;;;;;;;;;;;;;22.73;29.03;98493.22;4988616;28;854;-79
2021/09/03 10:27:04;;;;;;;;;;;;;;;22.60;29.20;98496.75;5005494;28;888;-78
2021/09/03 10:29:43;;;;;;;;;;;;;;;22.76;28.71;98489.50;5005272;28;1064;-79
2021/09/03 10:32:32;;;;;;;;;;;;;;;22.70;28.70;98492.06;5005600;28;778;-79
2021/09/03 10:34:58;;;;;;;;;;;;;;;22.60;29.10;98490.28;5022242;28;1910;-78
2021/09/03 10:37:27;;;;;;;;;;;;;;;22.66;28.85;98488.50;5005780;28;669;-79
2021/09/03 10:40:05;;;;;;;;;;;;;;;22.72;28.54;98495.25;4989353;28;912;-79
2021/09/03 10:42:37;;;;;;;;;;;;;;;22.57;28.92;98488.31;5022437;28;910;-79
2021/09/03 10:45:06;;;;;;;;;;;;;;;22.44;29.27;98484.56;5021834;28;643;-79
2021/09/03 10:47:32;;;;;;;;;;;;;;;22.61;29.09;98489.03;5022731;28;627;-79
2021/09/03 10:49:57;;;;;;;;;;;;;;;22.66;28.96;98477.16;5005227;28;654;-79
2021/09/03 10:52:23;;;;;;;;;;;;;;;22.61;29.05;98472.00;5005538;28;624;-78
2021/09/03 10:54:48;;;;;;;;;;;;;;;22.77;28.74;98463.50;5005135;28;927;-79
2021/09/03 10:57:17;;;;;;;;;;;;;;;22.72;28.59;98461.22;5005264;28;1906;-79
2021/09/03 11:00:05;;;;;;;;;;;;;;;22.64;28.93;98459.78;5021940;28;996;-79
2021/09/03 11:02:31;;;;;;;;;;;;;;;22.62;29.14;98456.59;5021806;28;916;-79
2021/09/03 11:05:08;;;;;;;;;;;;;;;22.61;29.25;98466.34;4979135;28;1247956;-78
2021/09/03 11:07:43;;;;;;;;;;;;;;;22.58;29.50;98462.34;5023224;28;649;-79
2021/09/03 11:10:19;;;;;;;;;;;;;;;22.61;29.25;98466.34;5005763;28;1039;-79
2021/09/03 11:12:48;;;;;;;;;;;;;;;22.74;28.91;98455.91;5022846;28;906;-79
2021/09/03 11:15:14;;;;;;;;;;;;;;;22.66;28.92;98445.97;5022318;28;1981;-79
2021/09/03 11:17:39;;;;;;;;;;;;;;;22.83;28.71;98441.88;5023159;28;679;-79
2021/09/03 11:20:05;;;;;;;;;;;;;;;22.66;28.85;98440.28;5022457;28;679;-79
2021/09/03 11:22:31;;;;;;;;;;;;;;;22.64;29.34;98437.09;5023386;28;654;-79
2021/09/03 11:25:00;;;;;;;;;;;;;;;22.73;29.18;98434.44;5005426;28;867;-79
2021/09/03 11:27:30;;;;;;;;;;;;;;;22.63;29.30;98435.47;5006242;28;960;-79
2021/09/03 11:30:01;;;;;;;;;;;;;;;22.67;29.04;98432.56;5006283;28;894;-78
2021/09/03 11:32:27;;;;;;;;;;;;;;;22.72;29.02;98435.69;5006802;28;687;-78
2021/09/03 11:35:08;;;;;;;;;;;;;;;22.78;28.82;98435.94;5005553;28;655;-79
2021/09/03 11:37:34;;;;;;;;;;;;;;;22.64;29.08;98428.59;5005653;28;699;-79
2021/09/03 11:40:02;;;;;;;;;;;;;;;22.77;29.01;98428.69;5004422;28;1000;-79
2021/09/03 11:42:34;;;;;;;;;;;;;;;22.62;29.21;98422.53;5005651;28;819;-79
2021/09/03 11:45:01;;;;;;;;;;;;;;;22.69;29.05;98425.22;5005200;28;902;-79
2021/09/03 11:47:28;;;;;;;;;;;;;;;22.70;29.10;98420.34;5005854;28;623;-79
2021/09/03 11:49:54;;;;;;;;;;;;;;;22.72;29.18;98410.16;5004552;28;891;-79
2021/09/03 11:52:45;;;;;;;;;;;;;;;22.68;29.09;98419.97;5005447;28;683;-79
2021/09/03 11:55:17;;;;;;;;;;;;;;;22.81;29.00;98413.16;5020125;28;1887;-79
2021/09/03 11:57:49;;;;;;;;;;;;;;;22.80;29.03;98417.25;5005750;28;936;-79
2021/09/03 12:00:14;;;;;;;;;;;;;;;22.65;29.00;98404.66;5022025;28;686;-79
2021/09/03 12:02:40;;;;;;;;;;;;;;;22.84;29.03;98406.59;5005250;28;1419;-79
2021/09/03 12:05:10;;;;;;;;;;;;;;;22.80;29.27;98405.91;5004920;28;1484;-79
2021/09/03 12:07:36;;;;;;;;;;;;;;;22.81;28.90;98398.97;5022260;28;715;-79
2021/09/03 12:10:01;;;;;;;;;;;;;;;22.91;28.78;98399.19;5021503;28;863;-78
2021/09/03 12:12:27;;;;;;;;;;;;;;;22.79;29.02;98398.59;5022171;28;901;-79
2021/09/03 12:15:00;;;;;;;;;;;;;;;20.86;29.21;98112.56;5004680;28;897;-79
2021/09/03 12:17:35;;;;;;;;;;;;;;;22.66;29.32;98394.91;5005602;28;1902;-79
2021/09/03 12:20:14;;;;;;;;;;;;;;;22.75;29.18;98402.81;4987746;28;830;-79
2021/09/03 12:22:47;;;;;;;;;;;;;;;22.88;28.77;98398.03;5005019;28;750;-79
2021/09/03 12:25:12;;;;;;;;;;;;;;;22.77;28.92;98392.59;5004666;28;877;-79
2021/09/03 12:27:38;;;;;;;;;;;;;;;22.94;28.69;98393.41;5021605;28;814;-79
2021/09/03 12:30:12;;;;;;;;;;;;;;;22.86;28.84;98397.66;5021335;28;886;-79
2021/09/03 12:32:38;;;;;;;;;;;;;;;22.80;29.27;98388.09;5004976;28;778;-79
2021/09/03 12:35:07;;;;;;;;;;;;;;;22.61;29.16;98386.94;5004679;28;1899;-79
2021/09/03 12:37:32;;;;;;;;;;;;;;;22.68;29.25;98378.22;5022022;28;688;-79
2021/09/03 12:40:03;;;;;;;;;;;;;;;22.67;29.49;98378.69;5004255;28;886;-79
2021/09/03 12:42:29;;;;;;;;;;;;;;;22.74;29.18;98373.63;5004589;28;840;-79
2021/09/03 12:45:01;;;;;;;;;;;;;;;22.83;29.36;98370.94;5004125;28;1186;-79
2021/09/03 12:47:26;;;;;;;;;;;;;;;22.68;29.59;98363.25;5022147;28;632;-79
2021/09/03 12:49:51;;;;;;;;;;;;;;;22.65;29.66;98364.94;5021664;28;714;-79
2021/09/03 12:52:19;;;;;;;;;;;;;;;22.76;29.45;98364.69;5021713;28;740;-79
2021/09/03 12:54:44;;;;;;;;;;;;;;;22.69;29.11;98360.00;5021149;28;831;-79
2021/09/03 12:57:12;;;;;;;;;;;;;;;22.71;29.24;98363.16;5021646;28;1902;-78
2021/09/03 12:59:37;;;;;;;;;;;;;;;22.85;28.92;98362.81;5004040;28;899;-79
2021/09/03 13:02:08;;;;;;;;;;;;;;;22.85;28.91;98356.34;5021871;28;639;-78
2021/09/03 13:04:34;;;;;;;;;;;;;;;22.92;28.93;98349.69;5021101;28;966;-79